Time;durP1;ratioP1;P1;durP2;ratioP2;P2;SDS_P1;SDS_P2;PMS_P1;PMS_P2;Temp;Humidity;BMP_temperature;BMP_pressure;BME280_temperature;BME280_humidity;BME280_pressure;Samples;Min_cycle;Max_cycle;Signal;HPM_P1;HPM_P2
2023/09/20 04:00:27;;;;;;;1.90;1.10;;;16.80;77.60;;;;;;6230398;22;21727;-75
2023/09/20 04:02:54;;;;;;;1.63;0.90;;;16.70;77.70;;;;;;6308898;22;20404;-74
2023/09/20 04:05:20;;;;;;;1.57;0.90;;;16.80;77.90;;;;;;6308089;22;20396;-74
2023/09/20 04:07:49;;;;;;;2.17;1.37;;;16.80;77.70;;;;;;6308106;22;20398;-74
2023/09/20 04:10:18;;;;;;;2.13;1.37;;;16.80;77.40;;;;;;6307744;22;20784;-74
2023/09/20 04:12:45;;;;;;;2.07;1.07;;;16.90;77.40;;;;;;6276669;22;20749;-74
2023/09/20 04:15:12;;;;;;;1.80;1.00;;;16.90;77.30;;;;;;6277100;22;20408;-74
2023/09/20 04:17:39;;;;;;;2.00;1.00;;;16.90;77.30;;;;;;6277730;22;20709;-74
2023/09/20 04:20:07;;;;;;;1.97;1.20;;;16.80;77.50;;;;;;6276848;22;20409;-74
2023/09/20 04:22:36;;;;;;;2.00;0.90;;;16.80;77.50;;;;;;6276897;22;20425;-74
2023/09/20 04:25:05;;;;;;;2.17;1.13;;;16.80;77.50;;;;;;6276606;22;20957;-74
2023/09/20 04:27:32;;;;;;;2.03;1.00;;;16.80;77.50;;;;;;6276908;22;20492;-74
2023/09/20 04:29:59;;;;;;;1.70;1.07;;;16.80;77.60;;;;;;6276883;22;20402;-74
2023/09/20 04:32:26;;;;;;;1.80;1.13;;;16.80;77.50;;;;;;6276781;22;20453;-74
2023/09/20 04:34:56;;;;;;;2.90;1.40;;;16.80;77.50;;;;;;6276796;22;20437;-74
2023/09/20 04:37:23;;;;;;;2.20;1.17;;;16.70;77.70;;;;;;6276851;22;20401;-74
2023/09/20 04:39:49;;;;;;;2.00;1.00;;;16.70;77.60;;;;;;6276865;22;20404;-74
2023/09/20 04:42:16;;;;;;;1.80;0.90;;;16.70;77.70;;;;;;6276708;22;20417;-74
2023/09/20 04:44:43;;;;;;;1.80;0.90;;;16.70;77.70;;;;;;6276746;22;20400;-75
2023/09/20 04:47:11;;;;;;;2.70;1.20;;;16.70;77.70;;;;;;6276434;22;20398;-74
2023/09/20 04:49:38;;;;;;;3.60;1.57;;;16.70;77.60;;;;;;6276354;22;20738;-74
2023/09/20 04:52:09;;;;;;;3.00;1.10;;;16.70;77.80;;;;;;6276657;22;20425;-74
2023/09/20 04:54:36;;;;;;;1.70;1.00;;;16.60;78.10;;;;;;6276669;22;20432;-74
2023/09/20 04:57:04;;;;;;;2.20;1.10;;;16.50;78.20;;;;;;6276712;22;20436;-74
2023/09/20 04:59:31;;;;;;;1.97;1.30;;;16.50;78.20;;;;;;6276682;22;20406;-73
2023/09/20 05:01:59;;;;;;;1.90;1.10;;;16.50;78.40;;;;;;6276648;22;20433;-74
2023/09/20 05:04:26;;;;;;;2.53;1.87;;;16.50;78.30;;;;;;6276883;22;20447;-74
2023/09/20 05:06:53;;;;;;;2.10;1.17;;;16.40;78.40;;;;;;6276658;22;20397;-74
2023/09/20 05:09:21;;;;;;;2.00;1.10;;;16.30;79.00;;;;;;6276930;22;20401;-74
2023/09/20 05:11:49;;;;;;;2.17;1.20;;;16.30;78.80;;;;;;6276324;22;20498;-74
2023/09/20 05:14:16;;;;;;;1.87;1.00;;;16.30;78.90;;;;;;6276458;22;20437;-74
2023/09/20 05:16:42;;;;;;;2.00;1.07;;;16.40;78.80;;;;;;6276578;22;20401;-74
2023/09/20 05:19:09;;;;;;;1.73;1.03;;;16.50;78.50;;;;;;6276553;22;20397;-74
2023/09/20 05:21:37;;;;;;;1.80;1.10;;;16.50;78.30;;;;;;6276453;22;20417;-74
2023/09/20 05:24:04;;;;;;;1.93;1.00;;;16.60;78.30;;;;;;6276513;22;20451;-74
2023/09/20 05:26:32;;;;;;;2.47;1.10;;;16.60;78.10;;;;;;6276505;22;20397;-74
2023/09/20 05:28:59;;;;;;;2.27;1.13;;;16.80;78.10;;;;;;6276877;22;20488;-74
2023/09/20 05:31:28;;;;;;;1.87;1.13;;;17.00;77.20;;;;;;6277013;22;20768;-74
2023/09/20 05:33:56;;;;;;;1.80;1.20;;;17.10;76.40;;;;;;6278767;22;20476;-74
2023/09/20 05:36:26;;;;;;;2.87;1.10;;;17.20;76.20;;;;;;6278605;22;20412;-74
2023/09/20 05:38:53;;;;;;;1.97;0.97;;;17.20;76.40;;;;;;6278625;22;20421;-74
2023/09/20 05:41:20;;;;;;;2.20;1.20;;;17.40;76.80;;;;;;6278093;22;20938;-74
2023/09/20 05:43:48;;;;;;;2.50;1.17;;;17.90;74.80;;;;;;6278107;22;20432;-74
2023/09/20 05:46:16;;;;;;;2.70;1.10;;;18.30;73.80;;;;;;6278102;22;20973;-75
2023/09/20 05:48:44;;;;;;;1.90;1.10;;;18.50;72.70;;;;;;6278438;22;20405;-74
2023/09/20 05:51:14;;;;;;;2.80;1.17;;;18.60;73.10;;;;;;6278366;22;20421;-74
2023/09/20 05:53:41;;;;;;;3.10;1.40;;;19.10;72.30;;;;;;6278110;22;20433;-74
2023/09/20 05:56:10;;;;;;;1.90;1.10;;;19.20;72.20;;;;;;6278422;22;20401;-74
2023/09/20 05:58:38;;;;;;;2.10;1.00;;;19.20;72.70;;;;;;6278504;22;20456;-74
2023/09/20 06:01:07;;;;;;;2.40;1.20;;;19.10;72.40;;;;;;6278084;22;20437;-74
2023/09/20 06:03:36;;;;;;;1.70;1.00;;;19.10;71.80;;;;;;6278394;22;20472;-74
2023/09/20 06:06:04;;;;;;;1.90;1.00;;;19.00;71.90;;;;;;6278347;22;20408;-71
2023/09/20 06:08:30;;;;;;;1.90;1.20;;;19.10;71.70;;;;;;6278575;22;20405;-74
2023/09/20 06:10:58;;;;;;;1.70;1.10;;;19.30;71.00;;;;;;6278162;22;20440;-74
2023/09/20 06:13:24;;;;;;;1.80;0.90;;;19.40;71.40;;;;;;6278141;22;20411;-74
2023/09/20 06:15:51;;;;;;;1.60;1.00;;;19.90;70.50;;;;;;6278180;22;20779;-74
2023/09/20 06:18:19;;;;;;;3.10;1.03;;;21.00;68.70;;;;;;6278203;22;20748;-75
2023/09/20 06:20:50;;;;;;;2.40;0.90;;;22.40;64.10;;;;;;6277982;22;20417;-75
2023/09/20 06:23:18;;;;;;;1.87;0.90;;;23.70;61.10;;;;;;6277753;22;20756;-76
2023/09/20 06:25:46;;;;;;;2.07;0.90;;;25.00;57.50;;;;;;6278028;22;20405;-75
2023/09/20 06:28:14;;;;;;;1.80;1.00;;;26.30;56.10;;;;;;6278058;22;20401;-75
2023/09/20 06:30:41;;;;;;;2.33;1.00;;;27.60;53.20;;;;;;6277945;22;20421;-75
2023/09/20 06:33:08;;;;;;;1.63;1.00;;;28.60;49.50;;;;;;6277931;22;20401;-75
2023/09/20 06:35:40;;;;;;;2.70;1.13;;;29.20;49.20;;;;;;6277877;22;20514;-76
2023/09/20 06:38:07;;;;;;;1.43;0.80;;;29.50;48.90;;;;;;6278035;22;20382;-75
2023/09/20 06:40:38;;;;;;;1.87;1.03;;;30.10;47.80;;;;;;6277785;22;20405;-76
2023/09/20 06:43:07;;;;;;;2.93;1.00;;;30.50;47.40;;;;;;6277861;22;20393;-75
2023/09/20 06:45:34;;;;;;;2.40;1.10;;;31.20;46.00;;;;;;6277476;22;20889;-75
2023/09/20 06:48:02;;;;;;;1.67;0.90;;;31.40;44.80;;;;;;6277845;22;20409;-75
2023/09/20 06:50:28;;;;;;;2.20;1.17;;;31.50;45.10;;;;;;6277361;22;20919;-76
2023/09/20 06:52:56;;;;;;;1.70;0.80;;;30.90;46.00;;;;;;6277756;22;20405;-75
2023/09/20 06:55:25;;;;;;;1.97;0.90;;;31.10;46.10;;;;;;6277827;22;20444;-75
2023/09/20 06:57:52;;;;;;;1.50;0.90;;;31.40;45.70;;;;;;6277826;22;20409;-75
2023/09/20 07:00:25;;;;;;;1.53;0.87;;;31.50;45.40;;;;;;6277388;22;20409;-76
2023/09/20 07:02:52;;;;;;;1.60;0.90;;;30.60;45.30;;;;;;6277828;22;20469;-75
2023/09/20 07:05:21;;;;;;;1.90;1.10;;;28.90;48.90;;;;;;6277672;22;20393;-75
2023/09/20 07:07:48;;;;;;;1.50;0.90;;;28.30;50.50;;;;;;6277805;22;20511;-75
2023/09/20 07:10:16;;;;;;;1.80;1.00;;;27.30;51.80;;;;;;6277710;22;20483;-75
2023/09/20 07:12:43;;;;;;;1.60;1.00;;;26.60;54.30;;;;;;6277700;22;20467;-74
2023/09/20 07:15:15;;;;;;;1.87;0.90;;;25.50;55.30;;;;;;6277512;22;20437;-74
2023/09/20 07:17:43;;;;;;;1.83;1.07;;;24.40;58.40;;;;;;6277781;22;20386;-75
2023/09/20 07:20:14;;;;;;;1.70;0.97;;;23.40;60.60;;;;;;6277597;22;20405;-75
2023/09/20 07:22:44;;;;;;;2.00;1.27;;;22.80;62.60;;;;;;6277277;22;20785;-75
2023/09/20 07:25:17;;;;;;;1.60;1.07;;;22.30;64.20;;;;;;6277475;22;20397;-74
2023/09/20 07:27:45;;;;;;;1.50;0.87;;;22.20;65.00;;;;;;6277569;22;20412;-74
2023/09/20 07:30:17;;;;;;;1.57;0.87;;;22.40;63.90;;;;;;6277019;22;20880;-75
2023/09/20 07:32:44;;;;;;;1.70;0.90;;;22.80;63.30;;;;;;6277359;22;20512;-75
2023/09/20 07:35:23;;;;;;;2.17;1.03;;;23.00;62.00;;;;;;6277272;22;20443;-75
2023/09/20 07:37:55;;;;;;;4.10;1.10;;;22.80;63.80;;;;;;6278387;22;20392;-75
2023/09/20 07:40:22;;;;;;;1.70;0.90;;;22.50;63.90;;;;;;6277326;22;20386;-76
2023/09/20 07:42:51;;;;;;;1.67;0.87;;;22.40;64.30;;;;;;6277355;22;20776;-75
2023/09/20 07:45:22;;;;;;;2.00;1.00;;;22.20;64.90;;;;;;6277301;22;20429;-74
2023/09/20 07:47:48;;;;;;;1.63;0.90;;;22.40;64.50;;;;;;6276952;22;20935;-75
2023/09/20 07:50:16;;;;;;;1.70;0.80;;;22.60;63.60;;;;;;6276894;22;20888;-75
2023/09/20 07:52:44;;;;;;;2.20;1.13;;;22.90;63.40;;;;;;6276700;22;20771;-74
2023/09/20 07:55:11;;;;;;;1.70;0.90;;;23.30;62.70;;;;;;6276796;22;20480;-75
2023/09/20 07:57:38;;;;;;;1.70;1.00;;;23.50;61.70;;;;;;6277195;22;20397;-75
2023/09/20 08:00:09;;;;;;;1.70;1.00;;;23.80;61.70;;;;;;6277187;22;20404;-75
2023/09/20 08:02:37;;;;;;;2.90;1.13;;;24.00;58.70;;;;;;6276672;22;20437;-75
2023/09/20 08:05:04;;;;;;;1.57;0.80;;;23.70;58.90;;;;;;6277452;22;20393;-75
2023/09/20 08:07:30;;;;;;;1.80;1.10;;;23.30;59.80;;;;;;6276741;22;20404;-74
2023/09/20 08:09:57;;;;;;;2.90;1.13;;;22.80;61.40;;;;;;6277129;22;20405;-74
2023/09/20 08:12:24;;;;;;;2.00;1.20;;;22.60;61.50;;;;;;6277085;22;20509;-74
2023/09/20 08:14:51;;;;;;;1.70;0.93;;;22.70;61.50;;;;;;6277057;22;20566;-75
2023/09/20 08:20:07;;;;;;;1.87;1.20;;;22.90;61.10;;;;;;6276775;22;20866;-74
2023/09/20 09:00:57;;;;;;;1.93;1.10;;;22.80;63.10;;;;;;6276272;22;20554;-72
2023/09/20 09:03:25;;;;;;;3.00;1.20;;;22.70;62.60;;;;;;6277175;22;20761;-74
2023/09/20 09:05:53;;;;;;;1.70;1.03;;;22.60;64.00;;;;;;6276310;22;20393;-72
2023/09/20 09:08:20;;;;;;;1.90;1.13;;;22.70;63.80;;;;;;6276732;22;20406;-73
2023/09/20 09:10:47;;;;;;;1.87;1.00;;;22.50;62.90;;;;;;6276576;22;20421;-73
2023/09/20 09:13:14;;;;;;;1.73;1.10;;;22.50;60.50;;;;;;6276671;22;20405;-72
2023/09/20 09:15:41;;;;;;;2.83;1.17;;;22.40;61.60;;;;;;6276917;22;20515;-72
2023/09/20 09:18:15;;;;;;;2.20;1.00;;;22.40;62.60;;;;;;6276670;22;20401;-73
2023/09/20 09:20:43;;;;;;;2.10;0.93;;;22.40;62.20;;;;;;6276628;22;20420;-73
2023/09/20 09:23:11;;;;;;;2.73;1.13;;;22.40;62.20;;;;;;6276557;22;20404;-73
2023/09/20 09:25:37;;;;;;;2.47;0.90;;;22.50;62.70;;;;;;6276663;22;20409;-73
2023/09/20 09:28:04;;;;;;;1.80;0.80;;;22.50;63.70;;;;;;6277452;22;20409;-72
2023/09/20 09:30:33;;;;;;;2.40;1.17;;;22.30;62.70;;;;;;6276458;22;20409;-73
2023/09/20 09:33:00;;;;;;;2.00;1.20;;;22.30;63.20;;;;;;6276048;22;20408;-72
2023/09/20 09:35:27;;;;;;;2.50;1.20;;;22.50;60.90;;;;;;6276462;22;20437;-72
2023/09/20 09:37:53;;;;;;;1.90;1.30;;;22.60;60.70;;;;;;6276757;22;20439;-73
2023/09/20 09:40:21;;;;;;;2.33;1.20;;;22.50;60.10;;;;;;6277130;22;20730;-72
2023/09/20 09:42:49;;;;;;;1.63;0.80;;;22.50;62.60;;;;;;6276075;22;20930;-71
2023/09/20 09:45:30;;;;;;;2.37;1.17;;;22.40;61.30;;;;;;6276480;22;20473;-72
2023/09/20 09:48:00;;;;;;;1.90;1.10;;;22.50;61.20;;;;;;6276575;22;20381;-72
2023/09/20 09:50:27;;;;;;;1.70;0.90;;;22.60;62.50;;;;;;6276364;22;20397;-72
2023/09/20 09:52:54;;;;;;;3.00;1.10;;;22.80;58.50;;;;;;6276413;22;20401;-73
2023/09/20 09:55:22;;;;;;;1.80;1.00;;;22.80;60.80;;;;;;6276351;22;20443;-72
2023/09/20 09:57:49;;;;;;;1.90;1.20;;;22.90;57.50;;;;;;6276485;22;20404;-72
2023/09/20 10:00:16;;;;;;;1.87;1.13;;;23.00;59.80;;;;;;6276425;22;20455;-73
2023/09/20 10:02:46;;;;;;;2.73;1.30;;;23.10;59.40;;;;;;6276234;22;20429;-72
2023/09/20 10:05:14;;;;;;;1.60;0.90;;;23.20;58.40;;;;;;6276029;22;20856;-72
2023/09/20 10:07:44;;;;;;;1.80;1.20;;;23.10;58.80;;;;;;6276338;22;20435;-72
2023/09/20 10:10:13;;;;;;;1.63;0.93;;;23.30;58.20;;;;;;6276357;22;20412;-72
2023/09/20 10:12:45;;;;;;;2.37;1.20;;;23.40;57.10;;;;;;6276210;22;20418;-72
2023/09/20 10:15:14;;;;;;;1.70;1.10;;;23.50;56.60;;;;;;6276424;22;20425;-72
2023/09/20 10:17:45;;;;;;;1.87;1.23;;;23.40;56.30;;;;;;6278115;22;20415;-73
2023/09/20 10:20:15;;;;;;;1.67;1.10;;;23.50;58.10;;;;;;6277946;22;20849;-73
2023/09/20 10:22:45;;;;;;;1.83;1.00;;;23.60;57.10;;;;;;6278338;22;20425;-73
2023/09/20 10:25:29;;;;;;;1.70;1.10;;;23.70;56.40;;;;;;6278257;22;20880;-74
2023/09/20 10:27:57;;;;;;;1.60;1.10;;;23.80;55.40;;;;;;6278381;22;20388;-72
2023/09/20 10:30:28;;;;;;;1.87;1.13;;;23.70;55.20;;;;;;6278551;22;20397;-74
2023/09/20 10:32:56;;;;;;;1.90;1.10;;;23.80;55.00;;;;;;6277823;22;20895;-72
2023/09/20 10:35:27;;;;;;;1.80;1.20;;;23.90;55.90;;;;;;6277928;22;20447;-73
2023/09/20 10:38:25;;;;;;;1.70;1.03;;;23.80;56.10;;;;;;6278104;22;20392;-72
2023/09/20 10:41:00;;;;;;;2.10;1.27;;;23.80;56.00;;;;;;6253490;22;20429;-73
2023/09/20 10:43:43;;;;;;;1.70;1.13;;;23.70;57.00;;;;;;6278084;22;20766;-72
2023/09/20 10:46:12;;;;;;;2.40;1.30;;;23.80;59.10;;;;;;6278013;22;20373;-75
2023/09/20 10:48:43;;;;;;;1.87;1.20;;;24.00;56.30;;;;;;6278045;22;20429;-74
2023/09/20 10:51:11;;;;;;;3.23;1.40;;;24.30;57.40;;;;;;6277993;22;20754;-77
2023/09/20 10:53:57;;;;;;;2.43;1.20;;;24.40;56.60;;;;;;6278354;22;20493;-75
2023/09/20 10:56:58;;;;;;;1.93;1.20;;;24.40;55.40;;;;;;6277430;22;20966;-75
2023/09/20 10:59:27;;;;;;;1.90;1.23;;;24.20;56.10;;;;;;6277568;22;20891;-74
2023/09/20 11:01:56;;;;;;;1.80;1.20;;;24.40;57.40;;;;;;6277473;22;20831;-73
2023/09/20 11:04:24;;;;;;;1.80;1.00;;;24.70;55.00;;;;;;6277802;22;20405;-75
2023/09/20 11:06:52;;;;;;;1.60;1.00;;;24.70;56.50;;;;;;6277367;22;20393;-74
2023/09/20 11:09:20;;;;;;;1.70;1.00;;;24.40;55.80;;;;;;6277603;22;20405;-74
2023/09/20 11:11:48;;;;;;;2.00;1.20;;;24.40;57.70;;;;;;6277629;22;20421;-73
2023/09/20 11:14:14;;;;;;;3.03;1.60;;;24.30;56.50;;;;;;6277813;22;20397;-74
2023/09/20 11:16:43;;;;;;;2.53;1.23;;;24.50;55.40;;;;;;6277740;22;20444;-74
2023/09/20 11:19:11;;;;;;;2.27;1.27;;;24.70;56.90;;;;;;6277608;22;20459;-74
2023/09/20 11:21:38;;;;;;;1.83;1.20;;;25.10;56.20;;;;;;6277529;22;20428;-74
2023/09/20 11:24:07;;;;;;;2.03;1.17;;;25.40;54.30;;;;;;6277537;22;20799;-74
2023/09/20 11:26:33;;;;;;;1.70;1.00;;;25.50;54.00;;;;;;6277593;22;20404;-74
2023/09/20 11:29:02;;;;;;;1.80;1.00;;;25.70;55.20;;;;;;6276998;22;20408;-74
2023/09/20 11:31:32;;;;;;;1.70;1.00;;;25.90;53.50;;;;;;6277532;22;20752;-73
2023/09/20 11:34:03;;;;;;;2.17;1.00;;;25.70;54.10;;;;;;6277048;22;20751;-73
2023/09/20 11:36:30;;;;;;;2.00;1.00;;;25.90;53.90;;;;;;6277366;22;20504;-74
2023/09/20 11:38:57;;;;;;;2.73;1.30;;;26.10;52.90;;;;;;6278295;22;20397;-74
2023/09/20 11:41:24;;;;;;;1.70;0.97;;;26.30;54.60;;;;;;6277219;22;20417;-74
2023/09/20 11:43:56;;;;;;;1.50;1.00;;;26.60;53.30;;;;;;6277425;22;20884;-75
2023/09/20 11:46:26;;;;;;;1.53;1.10;;;27.00;52.50;;;;;;6277601;22;20378;-75
2023/09/20 11:48:57;;;;;;;1.87;1.10;;;26.70;53.30;;;;;;6277355;22;20700;-75
2023/09/20 11:51:25;;;;;;;2.20;1.07;;;26.90;53.40;;;;;;6277233;22;20425;-74
2023/09/20 11:53:52;;;;;;;2.30;1.20;;;26.80;53.00;;;;;;6276814;22;20765;-74
2023/09/20 11:56:25;;;;;;;1.80;1.00;;;26.90;52.80;;;;;;6277080;22;20755;-74
2023/09/20 11:58:53;;;;;;;2.70;1.20;;;27.20;54.70;;;;;;6276885;22;20722;-75
2023/09/20 12:01:24;;;;;;;2.23;1.17;;;27.40;53.20;;;;;;6277045;22;20524;-74
2023/09/20 12:03:51;;;;;;;2.07;0.97;;;27.50;51.40;;;;;;6276976;22;20852;-75
2023/09/20 12:06:18;;;;;;;1.60;0.90;;;26.90;51.90;;;;;;6277488;22;20401;-75
2023/09/20 12:08:46;;;;;;;1.70;0.90;;;27.00;51.90;;;;;;6277773;22;20401;-75
2023/09/20 12:11:13;;;;;;;1.73;1.00;;;27.10;51.00;;;;;;6277374;22;20425;-76
2023/09/20 12:13:41;;;;;;;2.00;0.93;;;27.10;52.40;;;;;;6277003;22;20960;-74
2023/09/20 12:16:09;;;;;;;2.27;1.00;;;27.40;51.00;;;;;;6276663;22;20756;-74
2023/09/20 12:18:36;;;;;;;1.60;0.90;;;27.40;50.60;;;;;;6277239;22;20397;-74
2023/09/20 12:21:03;;;;;;;1.90;0.90;;;27.70;50.70;;;;;;6277167;22;20457;-74
2023/09/20 12:23:30;;;;;;;1.80;0.93;;;27.70;50.00;;;;;;6277185;22;20405;-74
2023/09/20 12:25:58;;;;;;;1.50;0.90;;;27.50;51.80;;;;;;6276985;22;20712;-74
2023/09/20 12:28:26;;;;;;;1.97;1.10;;;27.70;49.60;;;;;;6277036;22;20420;-74
2023/09/20 12:30:53;;;;;;;2.00;1.00;;;28.10;50.30;;;;;;6276970;22;20422;-75
2023/09/20 12:33:20;;;;;;;1.90;0.80;;;28.10;48.90;;;;;;6276654;22;20892;-75
2023/09/20 12:35:47;;;;;;;1.50;0.80;;;28.10;48.80;;;;;;6276871;22;20433;-73
2023/09/20 12:38:14;;;;;;;1.87;0.90;;;28.10;46.10;;;;;;6276843;22;20788;-75
2023/09/20 12:40:40;;;;;;;1.67;0.90;;;28.40;48.00;;;;;;6276657;22;20432;-74
2023/09/20 12:43:08;;;;;;;1.50;0.80;;;28.40;48.30;;;;;;6276524;22;20397;-74
2023/09/20 12:45:35;;;;;;;2.80;0.97;;;28.40;46.70;;;;;;6276353;22;20758;-74
2023/09/20 12:48:04;;;;;;;1.50;0.90;;;28.60;47.10;;;;;;6276803;22;20409;-74
2023/09/20 12:50:36;;;;;;;1.50;0.80;;;28.90;45.20;;;;;;6276315;22;20959;-75
2023/09/20 12:53:04;;;;;;;2.00;0.90;;;29.00;46.90;;;;;;6276789;22;20465;-74
2023/09/20 12:55:31;;;;;;;1.80;0.90;;;28.90;45.10;;;;;;6276515;22;20527;-73
2023/09/20 12:57:59;;;;;;;1.50;0.80;;;29.10;44.60;;;;;;6276269;22;20895;-74
2023/09/20 13:00:27;;;;;;;1.80;0.83;;;29.00;46.20;;;;;;6276430;22;20402;-74
2023/09/20 13:02:55;;;;;;;1.83;1.00;;;29.20;45.50;;;;;;6276447;22;20880;-74
2023/09/20 13:05:22;;;;;;;1.47;0.87;;;29.20;46.10;;;;;;6276831;22;20401;-74
2023/09/20 13:07:49;;;;;;;1.50;0.70;;;29.10;46.90;;;;;;6276328;22;20727;-74
2023/09/20 13:10:17;;;;;;;1.60;0.87;;;29.00;45.40;;;;;;6276713;22;20404;-73
2023/09/20 13:12:43;;;;;;;1.30;0.70;;;28.80;46.50;;;;;;6276423;22;20504;-72
2023/09/20 13:15:12;;;;;;;1.40;0.80;;;28.60;45.80;;;;;;6276654;22;20402;-72
2023/09/20 13:17:41;;;;;;;1.40;0.73;;;28.50;45.80;;;;;;6276637;22;20413;-73
2023/09/20 13:20:09;;;;;;;2.63;0.93;;;28.50;45.10;;;;;;6276629;22;20450;-73
2023/09/20 13:22:36;;;;;;;1.53;0.70;;;28.70;45.20;;;;;;6276670;22;20464;-73
2023/09/20 13:25:03;;;;;;;2.00;0.80;;;28.90;44.90;;;;;;6276932;22;20447;-74
2023/09/20 13:27:30;;;;;;;1.87;0.90;;;29.10;46.90;;;;;;6276892;22;20412;-75
2023/09/20 13:29:57;;;;;;;1.40;0.80;;;29.40;43.90;;;;;;6276779;22;20402;-74
2023/09/20 13:32:26;;;;;;;1.80;0.90;;;29.50;44.20;;;;;;6276615;22;20421;-74
2023/09/20 13:34:54;;;;;;;1.50;0.80;;;29.50;44.90;;;;;;6276611;22;20448;-75
2023/09/20 13:37:21;;;;;;;1.70;0.90;;;29.60;45.50;;;;;;6276498;22;20433;-73
2023/09/20 13:39:48;;;;;;;1.40;0.70;;;29.70;43.70;;;;;;6276633;22;20747;-75
2023/09/20 13:42:15;;;;;;;1.43;0.77;;;30.10;44.60;;;;;;6276606;22;20424;-74
2023/09/20 13:44:42;;;;;;;1.43;0.90;;;30.40;43.40;;;;;;6276652;22;20405;-75
2023/09/20 13:47:09;;;;;;;2.23;0.83;;;30.00;44.30;;;;;;6276858;22;20402;-75
2023/09/20 13:49:36;;;;;;;1.83;1.00;;;29.40;45.50;;;;;;6276259;22;20397;-74
2023/09/20 13:52:06;;;;;;;1.50;0.90;;;29.20;44.50;;;;;;6277077;22;20424;-74
2023/09/20 13:54:32;;;;;;;1.60;0.90;;;29.50;45.00;;;;;;6278552;22;20433;-75
2023/09/20 13:56:59;;;;;;;1.50;0.80;;;29.80;45.00;;;;;;6278716;22;20433;-74
2023/09/20 13:59:29;;;;;;;1.60;0.80;;;30.10;44.00;;;;;;6278480;22;20405;-73
2023/09/20 14:01:58;;;;;;;1.50;0.80;;;30.30;44.00;;;;;;6278520;22;20433;-74
2023/09/20 14:04:25;;;;;;;1.30;0.73;;;30.60;43.70;;;;;;6278282;22;20923;-75
2023/09/20 14:06:52;;;;;;;1.60;0.90;;;31.50;42.70;;;;;;6278108;22;20444;-74
2023/09/20 14:09:22;;;;;;;1.73;0.80;;;32.00;42.80;;;;;;6278843;22;20401;-75
2023/09/20 14:11:48;;;;;;;1.57;0.70;;;32.70;40.30;;;;;;6278426;22;20448;-74
2023/09/20 14:14:17;;;;;;;1.70;0.90;;;33.50;40.40;;;;;;6278451;22;20408;-74
2023/09/20 14:16:43;;;;;;;1.60;0.90;;;35.00;39.00;;;;;;6278155;22;20432;-75
2023/09/20 14:19:10;;;;;;;1.30;0.73;;;37.00;35.80;;;;;;6277901;22;20895;-74
2023/09/20 14:21:38;;;;;;;1.87;0.80;;;38.30;34.50;;;;;;6278317;22;20424;-74
2023/09/20 14:24:05;;;;;;;1.53;0.70;;;38.50;33.20;;;;;;6278422;22;20438;-75
2023/09/20 14:26:38;;;;;;;1.48;0.90;;;39.00;33.20;;;;;;6277774;22;20174;-75
2023/09/20 14:29:07;;;;;;;1.33;0.70;;;39.90;32.30;;;;;;6278650;22;20250;-74
2023/09/20 14:31:34;;;;;;;1.50;0.85;;;39.30;33.30;;;;;;6278196;22;20232;-74
2023/09/20 14:34:00;;;;;;;1.23;0.70;;;39.60;32.30;;;;;;6278022;22;20174;-74
2023/09/20 14:36:27;;;;;;;1.10;0.60;;;39.70;32.20;;;;;;6277960;22;20193;-75
2023/09/20 14:38:55;;;;;;;1.30;0.70;;;38.90;33.90;;;;;;6277989;22;20178;-74
2023/09/20 14:41:22;;;;;;;1.40;0.80;;;38.40;34.20;;;;;;6277864;22;20205;-74
2023/09/20 14:43:50;;;;;;;1.83;0.90;;;38.10;33.80;;;;;;6278429;22;20178;-75
2023/09/20 14:46:16;;;;;;;1.53;0.80;;;38.20;34.00;;;;;;6278055;22;20175;-75
2023/09/20 14:48:43;;;;;;;1.30;0.80;;;38.20;33.60;;;;;;6277987;22;20185;-74
2023/09/20 14:51:14;;;;;;;1.60;0.80;;;37.30;34.20;;;;;;6277874;22;20420;-75
2023/09/20 14:53:41;;;;;;;1.40;0.83;;;37.40;34.10;;;;;;6278363;22;20381;-74
2023/09/20 14:56:09;;;;;;;1.83;0.90;;;38.30;35.00;;;;;;6278071;22;20539;-75
2023/09/20 14:58:36;;;;;;;1.77;0.90;;;39.30;33.20;;;;;;6278319;22;20178;-75
2023/09/20 15:01:12;;;;;;;1.30;0.80;;;40.20;31.90;;;;;;6277650;22;20210;-76
2023/09/20 15:03:39;;;;;;;1.42;0.80;;;40.90;30.90;;;;;;6277878;22;20162;-75
2023/09/20 15:06:07;;;;;;;1.30;0.80;;;41.30;30.90;;;;;;6277713;22;20253;-76
2023/09/20 15:08:34;;;;;;;1.30;0.80;;;42.10;31.30;;;;;;6277785;22;20178;-74
2023/09/20 15:11:00;;;;;;;1.30;0.77;;;41.00;30.60;;;;;;6277687;22;20205;-75
2023/09/20 15:13:28;;;;;;;1.20;0.73;;;39.30;32.20;;;;;;6277674;22;20556;-75
2023/09/20 15:15:57;;;;;;;1.80;0.70;;;38.50;33.60;;;;;;6277376;22;20687;-76
2023/09/20 15:18:25;;;;;;;1.43;0.80;;;36.80;35.30;;;;;;6277899;22;20404;-75
2023/09/20 15:20:53;;;;;;;1.47;0.80;;;34.90;38.00;;;;;;6277648;22;20424;-74
2023/09/20 15:23:20;;;;;;;2.80;0.87;;;33.40;39.40;;;;;;6277573;22;20401;-74
2023/09/20 15:25:47;;;;;;;1.50;0.90;;;32.70;41.00;;;;;;6277543;22;20745;-74
2023/09/20 15:28:14;;;;;;;1.80;0.80;;;31.70;40.90;;;;;;6277467;22;20424;-74
2023/09/20 15:30:40;;;;;;;1.53;0.90;;;30.70;42.80;;;;;;6277320;22;20432;-75
2023/09/20 15:33:08;;;;;;;1.70;0.90;;;30.10;44.80;;;;;;6277401;22;20401;-74
2023/09/20 15:35:36;;;;;;;1.97;0.80;;;29.80;45.00;;;;;;6277372;22;20402;-74
2023/09/20 15:38:04;;;;;;;1.73;1.00;;;29.20;46.00;;;;;;6276942;22;21069;-74
2023/09/20 15:40:30;;;;;;;1.60;1.00;;;28.70;47.30;;;;;;6277236;22;20451;-74
2023/09/20 15:42:58;;;;;;;5.90;2.20;;;28.10;48.50;;;;;;6277271;22;20405;-73
2023/09/20 15:45:25;;;;;;;1.90;0.73;;;28.10;49.00;;;;;;6277266;22;20412;-73
2023/09/20 15:47:52;;;;;;;1.50;0.90;;;28.00;49.50;;;;;;6277289;22;20515;-74
2023/09/20 15:50:19;;;;;;;1.50;0.90;;;27.90;48.90;;;;;;6277240;22;20401;-74
2023/09/20 15:52:48;;;;;;;2.27;0.90;;;27.80;48.90;;;;;;6277161;22;20756;-74
2023/09/20 15:55:15;;;;;;;1.40;0.70;;;27.60;49.40;;;;;;6277181;22;20496;-74
2023/09/20 15:57:42;;;;;;;1.57;0.90;;;27.40;49.70;;;;;;6277075;22;20437;-74
2023/09/20 16:00:13;;;;;;;1.73;0.90;;;27.40;49.90;;;;;;6277130;22;20397;-74
2023/09/20 16:02:40;;;;;;;2.70;1.00;;;27.40;50.50;;;;;;6276499;22;20448;-74
2023/09/20 16:05:09;;;;;;;2.73;0.80;;;27.40;49.70;;;;;;6277107;22;20401;-74
2023/09/20 16:07:36;;;;;;;1.50;0.90;;;27.30;49.70;;;;;;6277050;22;20451;-74
2023/09/20 16:10:07;;;;;;;1.67;1.00;;;27.10;49.80;;;;;;6277026;22;20451;-74
2023/09/20 16:12:33;;;;;;;3.67;1.00;;;26.90;49.90;;;;;;6276977;22;20432;-74
2023/09/20 16:15:00;;;;;;;2.17;1.10;;;26.90;50.60;;;;;;6276694;22;20405;-74
2023/09/20 16:17:27;;;;;;;1.97;0.90;;;26.90;50.40;;;;;;6293223;22;20468;-69
2023/09/20 16:19:53;;;;;;;3.70;1.60;;;26.90;51.00;;;;;;6307646;22;20415;-70
2023/09/20 16:22:20;;;;;;;5.13;1.60;;;26.90;51.20;;;;;;6307970;22;20401;-69
2023/09/20 16:24:47;;;;;;;4.00;1.20;;;26.70;50.50;;;;;;6307902;22;20493;-69
2023/09/20 16:27:15;;;;;;;5.50;1.70;;;26.70;51.00;;;;;;6291007;22;20494;-69
2023/09/20 16:29:42;;;;;;;4.40;1.37;;;26.70;51.40;;;;;;6277109;22;20405;-68
2023/09/20 16:32:09;;;;;;;8.47;2.07;;;26.80;51.40;;;;;;6276756;22;20479;-69
2023/09/20 16:34:35;;;;;;;3.77;1.00;;;26.80;51.40;;;;;;6276729;22;20420;-69
2023/09/20 16:37:02;;;;;;;2.50;0.90;;;26.70;51.20;;;;;;6276267;22;20881;-69
2023/09/20 16:39:29;;;;;;;1.73;0.80;;;26.70;51.10;;;;;;6276858;22;20401;-69
2023/09/20 16:41:57;;;;;;;1.60;0.90;;;26.70;51.40;;;;;;6276464;22;20908;-69
2023/09/20 16:44:25;;;;;;;2.20;1.00;;;26.70;51.50;;;;;;6276740;22;20410;-69
2023/09/20 16:46:53;;;;;;;2.00;0.80;;;26.80;52.40;;;;;;6276437;22;20448;-70
2023/09/20 16:49:19;;;;;;;1.53;0.93;;;26.80;52.60;;;;;;6277034;22;20402;-69
2023/09/20 16:51:46;;;;;;;1.40;0.70;;;26.80;52.60;;;;;;6276672;22;20447;-69
2023/09/20 16:54:13;;;;;;;2.60;1.03;;;26.80;54.30;;;;;;6276970;22;20397;-69
2023/09/20 16:56:39;;;;;;;1.70;1.10;;;26.80;53.60;;;;;;6276563;22;21102;-70
2023/09/20 16:59:07;;;;;;;2.33;1.20;;;26.70;55.20;;;;;;6276704;22;20397;-73
2023/09/20 17:01:36;;;;;;;2.93;1.27;;;26.70;56.00;;;;;;6276754;22;20393;-70
2023/09/20 17:04:04;;;;;;;1.77;1.00;;;26.60;56.30;;;;;;6276314;22;20401;-73
2023/09/20 17:06:31;;;;;;;1.90;1.00;;;26.50;56.70;;;;;;6276575;22;20397;-72
2023/09/20 17:08:58;;;;;;;1.60;1.10;;;26.40;56.90;;;;;;6277607;22;20397;-73
2023/09/20 17:11:26;;;;;;;2.17;0.90;;;26.30;57.20;;;;;;6276632;22;20437;-73
2023/09/20 17:13:52;;;;;;;2.13;1.10;;;26.20;57.50;;;;;;6276240;22;20967;-73
2023/09/20 17:16:19;;;;;;;1.60;0.90;;;26.10;57.90;;;;;;6275962;22;20814;-73
2023/09/20 17:18:47;;;;;;;2.80;1.30;;;26.00;58.10;;;;;;6276890;22;20428;-73
2023/09/20 17:21:14;;;;;;;2.73;0.80;;;25.90;58.10;;;;;;6276173;22;20458;-72
2023/09/20 17:23:41;;;;;;;2.20;1.10;;;25.80;58.10;;;;;;6276163;22;20896;-73
2023/09/20 17:26:07;;;;;;;1.90;1.00;;;25.70;58.60;;;;;;6276450;22;20397;-73
2023/09/20 17:28:34;;;;;;;1.63;0.97;;;25.70;58.40;;;;;;6278669;22;20416;-73
2023/09/20 17:31:04;;;;;;;2.27;1.10;;;25.60;59.00;;;;;;6278727;22;20429;-73
2023/09/20 17:33:31;;;;;;;1.60;0.90;;;25.50;59.00;;;;;;6278799;22;20397;-72